Fargo, North Dakota
Current Conditions -  °F | °C
As of 5:53 PM on Friday 31 Oct 2014 (Local Time) from KFAR Reporting Station
Clear Clear  
Wind Chill: 30°   Ceiling: Unl
Heat Index: 38°   Visibility: 10mi
Dew Point: 18°   Wind: 13mph
Humidity: 44%   Direction: 160°SSE
Pressure: 30.43"   Gusts: NA
Location:  46.88°N, 96.78°W
Report Text: KFAR 312253Z 16011KT 10SM CLR 03/M08 A3043 RMK AO2 SLP321 T00331078
Loading
Personal Weather Stations






























Interactive Weather Map
Tropical Storm Tracking
New forecast layout! Learn more

10-Day Weather Forecast

Advertisements
Track Severe Weather on mobile